sensor_id;sensor_type;location;lat;lon;timestamp;pressure;altitude;pressure_sealevel;temperature;humidity
23953;BME280;12163;49.316;6.092;2023-09-08T00:02:24;99503.09;;;21.42;70.48
23953;BME280;12163;49.316;6.092;2023-09-08T00:04:52;99503.81;;;21.39;70.63
23953;BME280;12163;49.316;6.092;2023-09-08T00:07:19;99506.84;;;21.34;70.55
23953;BME280;12163;49.316;6.092;2023-09-08T00:09:46;99504.78;;;21.31;70.63
23953;BME280;12163;49.316;6.092;2023-09-08T00:12:13;99506.66;;;21.27;70.88
23953;BME280;12163;49.316;6.092;2023-09-08T00:14:40;99500.06;;;21.47;70.84
23953;BME280;12163;49.316;6.092;2023-09-08T00:17:06;99502.94;;;21.35;71.03
23953;BME280;12163;49.316;6.092;2023-09-08T00:19:33;99499.56;;;21.26;70.88
23953;BME280;12163;49.316;6.092;2023-09-08T00:22:00;99504.91;;;21.19;70.93
23953;BME280;12163;49.316;6.092;2023-09-08T00:24:27;99501.63;;;21.13;71.33
23953;BME280;12163;49.316;6.092;2023-09-08T00:26:54;99507.81;;;21.10;71.06
23953;BME280;12163;49.316;6.092;2023-09-08T00:29:20;99502.22;;;21.07;71.17
23953;BME280;12163;49.316;6.092;2023-09-08T00:31:47;99506.84;;;21.03;71.18
23953;BME280;12163;49.316;6.092;2023-09-08T00:34:13;99509.84;;;20.98;71.40
23953;BME280;12163;49.316;6.092;2023-09-08T00:36:40;99504.66;;;20.93;71.42
23953;BME280;12163;49.316;6.092;2023-09-08T00:39:07;99511.56;;;20.87;72.02
23953;BME280;12163;49.316;6.092;2023-09-08T00:41:33;99509.50;;;20.84;72.01
23953;BME280;12163;49.316;6.092;2023-09-08T00:44:00;99509.38;;;20.80;72.49
23953;BME280;12163;49.316;6.092;2023-09-08T00:46:28;99512.47;;;20.79;72.70
23953;BME280;12163;49.316;6.092;2023-09-08T00:48:57;99506.91;;;20.75;72.48
23953;BME280;12163;49.316;6.092;2023-09-08T00:51:24;99506.00;;;20.71;73.13
23953;BME280;12163;49.316;6.092;2023-09-08T00:53:50;99507.84;;;20.67;73.29
23953;BME280;12163;49.316;6.092;2023-09-08T00:56:17;99508.59;;;20.95;73.40
23953;BME280;12163;49.316;6.092;2023-09-08T00:58:46;99507.38;;;21.08;72.78
23953;BME280;12163;49.316;6.092;2023-09-08T01:01:12;99498.59;;;21.18;72.36
23953;BME280;12163;49.316;6.092;2023-09-08T01:03:39;99513.28;;;21.26;72.34
23953;BME280;12163;49.316;6.092;2023-09-08T01:06:06;99510.72;;;21.33;72.05
23953;BME280;12163;49.316;6.092;2023-09-08T01:08:34;99507.28;;;21.36;71.60
23953;BME280;12163;49.316;6.092;2023-09-08T01:11:02;99505.41;;;21.40;71.55
23953;BME280;12163;49.316;6.092;2023-09-08T01:13:29;99503.53;;;21.44;71.30
23953;BME280;12163;49.316;6.092;2023-09-08T01:15:55;99513.34;;;21.45;71.23
23953;BME280;12163;49.316;6.092;2023-09-08T01:18:22;99518.13;;;21.48;71.28
23953;BME280;12163;49.316;6.092;2023-09-08T01:26:24;99510.16;;;21.43;71.10
23953;BME280;12163;49.316;6.092;2023-09-08T01:28:54;99513.25;;;21.41;71.20
23953;BME280;12163;49.316;6.092;2023-09-08T01:31:21;99509.31;;;21.39;71.07
23953;BME280;12163;49.316;6.092;2023-09-08T01:33:48;99506.91;;;21.37;70.97
23953;BME280;12163;49.316;6.092;2023-09-08T01:36:15;99512.03;;;21.39;70.62
23953;BME280;12163;49.316;6.092;2023-09-08T01:38:42;99514.69;;;21.35;70.29
23953;BME280;12163;49.316;6.092;2023-09-08T01:41:08;99510.72;;;21.33;70.62
23953;BME280;12163;49.316;6.092;2023-09-08T01:43:35;99509.16;;;21.32;70.51
23953;BME280;12163;49.316;6.092;2023-09-08T01:46:02;99510.25;;;21.31;70.53
23953;BME280;12163;49.316;6.092;2023-09-08T01:48:29;99501.59;;;21.29;70.83
23953;BME280;12163;49.316;6.092;2023-09-08T01:50:56;99509.03;;;21.28;70.31
23953;BME280;12163;49.316;6.092;2023-09-08T01:53:22;99505.94;;;21.30;70.25
23953;BME280;12163;49.316;6.092;2023-09-08T01:55:49;99500.00;;;21.28;70.48
23953;BME280;12163;49.316;6.092;2023-09-08T01:58:15;99507.34;;;21.24;70.74
23953;BME280;12163;49.316;6.092;2023-09-08T02:00:42;99501.44;;;21.22;71.17
23953;BME280;12163;49.316;6.092;2023-09-08T02:03:09;99503.31;;;21.18;71.29
23953;BME280;12163;49.316;6.092;2023-09-08T02:05:35;99500.13;;;21.16;70.59
23953;BME280;12163;49.316;6.092;2023-09-08T02:08:05;99498.09;;;21.13;70.79
23953;BME280;12163;49.316;6.092;2023-09-08T02:10:32;99499.59;;;21.10;71.18
23953;BME280;12163;49.316;6.092;2023-09-08T02:12:59;99499.16;;;21.08;71.33
23953;BME280;12163;49.316;6.092;2023-09-08T02:15:25;99496.75;;;21.07;70.92
23953;BME280;12163;49.316;6.092;2023-09-08T02:17:53;99502.22;;;21.07;70.91
23953;BME280;12163;49.316;6.092;2023-09-08T02:20:21;99500.63;;;21.06;71.05
23953;BME280;12163;49.316;6.092;2023-09-08T02:22:53;99493.56;;;21.05;70.63
23953;BME280;12163;49.316;6.092;2023-09-08T02:25:20;99497.03;;;21.02;70.87
23953;BME280;12163;49.316;6.092;2023-09-08T02:27:46;99495.88;;;21.03;70.73
23953;BME280;12163;49.316;6.092;2023-09-08T02:30:13;99495.44;;;21.01;70.69
23953;BME280;12163;49.316;6.092;2023-09-08T02:32:40;99501.19;;;20.96;70.51
23953;BME280;12163;49.316;6.092;2023-09-08T02:35:09;99498.00;;;20.94;71.03
23953;BME280;12163;49.316;6.092;2023-09-08T02:37:36;99500.75;;;20.94;71.26
23953;BME280;12163;49.316;6.092;2023-09-08T02:40:04;99497.19;;;20.93;70.53
23953;BME280;12163;49.316;6.092;2023-09-08T02:42:31;99501.91;;;20.93;70.95
23953;BME280;12163;49.316;6.092;2023-09-08T02:44:58;99502.63;;;20.90;71.01
23953;BME280;12163;49.316;6.092;2023-09-08T02:47:24;99502.63;;;20.90;71.32
23953;BME280;12163;49.316;6.092;2023-09-08T02:49:51;99499.06;;;20.89;71.25
23953;BME280;12163;49.316;6.092;2023-09-08T02:52:18;99497.84;;;20.87;71.33
23953;BME280;12163;49.316;6.092;2023-09-08T02:54:46;99496.22;;;20.86;71.65
23953;BME280;12163;49.316;6.092;2023-09-08T02:57:12;99508.34;;;20.85;71.29
23953;BME280;12163;49.316;6.092;2023-09-08T02:59:39;99501.25;;;20.84;71.33
23953;BME280;12163;49.316;6.092;2023-09-08T03:02:06;99494.19;;;20.83;71.10
23953;BME280;12163;49.316;6.092;2023-09-08T03:04:32;99491.44;;;20.83;71.32
23953;BME280;12163;49.316;6.092;2023-09-08T03:06:59;99491.88;;;20.85;71.02
23953;BME280;12163;49.316;6.092;2023-09-08T03:09:26;99497.84;;;20.87;70.99
23953;BME280;12163;49.316;6.092;2023-09-08T03:11:52;99497.91;;;20.90;70.78
23953;BME280;12163;49.316;6.092;2023-09-08T03:14:19;99497.13;;;20.90;70.62
23953;BME280;12163;49.316;6.092;2023-09-08T03:16:46;99499.50;;;20.91;70.45
23953;BME280;12163;49.316;6.092;2023-09-08T03:19:12;99504.19;;;20.91;70.63
23953;BME280;12163;49.316;6.092;2023-09-08T03:21:39;99504.19;;;20.91;70.42
23953;BME280;12163;49.316;6.092;2023-09-08T03:24:05;99510.03;;;20.89;70.52
23953;BME280;12163;49.316;6.092;2023-09-08T03:26:32;99504.09;;;20.87;70.41
23953;BME280;12163;49.316;6.092;2023-09-08T03:28:59;99501.59;;;20.82;70.48
23953;BME280;12163;49.316;6.092;2023-09-08T03:31:25;99501.59;;;20.82;70.81
23953;BME280;12163;49.316;6.092;2023-09-08T03:33:52;99499.91;;;20.78;70.53
23953;BME280;12163;49.316;6.092;2023-09-08T03:36:19;99481.84;;;20.77;70.90
23953;BME280;12163;49.316;6.092;2023-09-08T03:38:46;99491.69;;;20.78;70.67
23953;BME280;12163;49.316;6.092;2023-09-08T03:41:12;99492.84;;;20.77;70.64
23953;BME280;12163;49.316;6.092;2023-09-08T03:43:39;99489.66;;;20.75;70.29
23953;BME280;12163;49.316;6.092;2023-09-08T03:46:06;99495.03;;;20.71;70.38
23953;BME280;12163;49.316;6.092;2023-09-08T03:48:33;99491.06;;;20.69;70.94
23953;BME280;12163;49.316;6.092;2023-09-08T03:50:59;99486.28;;;20.66;71.01
23953;BME280;12163;49.316;6.092;2023-09-08T03:53:26;99491.66;;;20.62;70.93
23953;BME280;12163;49.316;6.092;2023-09-08T03:55:52;99497.06;;;20.59;70.92
23953;BME280;12163;49.316;6.092;2023-09-08T03:58:19;99498.47;;;20.53;70.87
23953;BME280;12163;49.316;6.092;2023-09-08T04:00:46;99496.78;;;20.48;71.29
23953;BME280;12163;49.316;6.092;2023-09-08T04:03:12;99505.25;;;20.44;71.54
23953;BME280;12163;49.316;6.092;2023-09-08T04:05:39;99500.13;;;20.42;71.73
23953;BME280;12163;49.316;6.092;2023-09-08T04:08:06;99501.97;;;20.38;72.00
23953;BME280;12163;49.316;6.092;2023-09-08T04:10:32;99502.66;;;20.35;71.59
23953;BME280;12163;49.316;6.092;2023-09-08T04:12:59;99499.47;;;20.33;71.08
23953;BME280;12163;49.316;6.092;2023-09-08T04:15:26;99505.66;;;20.30;71.29
23953;BME280;12163;49.316;6.092;2023-09-08T04:17:53;99501.66;;;20.28;71.53
23953;BME280;12163;49.316;6.092;2023-09-08T04:20:19;99510.25;;;20.26;71.81
23953;BME280;12163;49.316;6.092;2023-09-08T04:22:46;99504.34;;;20.24;72.06
23953;BME280;12163;49.316;6.092;2023-09-08T04:25:14;99507.78;;;20.21;72.01
23953;BME280;12163;49.316;6.092;2023-09-08T04:27:40;99506.97;;;20.21;71.86
23953;BME280;12163;49.316;6.092;2023-09-08T04:30:08;99509.25;;;20.19;71.49
23953;BME280;12163;49.316;6.092;2023-09-08T04:32:35;99513.94;;;20.18;71.70
23953;BME280;12163;49.316;6.092;2023-09-08T04:35:04;99515.19;;;20.21;72.13
23953;BME280;12163;49.316;6.092;2023-09-08T04:37:33;99506.53;;;20.19;71.74
23953;BME280;12163;49.316;6.092;2023-09-08T04:40:00;99516.34;;;20.20;71.68
23953;BME280;12163;49.316;6.092;2023-09-08T04:42:27;99507.41;;;19.83;72.20
23953;BME280;12163;49.316;6.092;2023-09-08T04:44:53;99510.66;;;19.61;72.90
23953;BME280;12163;49.316;6.092;2023-09-08T04:47:20;99521.53;;;19.46;73.38
23953;BME280;12163;49.316;6.092;2023-09-08T04:49:46;99519.13;;;19.32;74.34
23953;BME280;12163;49.316;6.092;2023-09-08T04:52:13;99518.19;;;19.28;74.38
23953;BME280;12163;49.316;6.092;2023-09-08T04:54:41;99515.56;;;19.56;75.45
23953;BME280;12163;49.316;6.092;2023-09-08T04:57:07;99521.22;;;19.87;74.89
23953;BME280;12163;49.316;6.092;2023-09-08T04:59:48;99525.59;;;20.15;74.04
23953;BME280;12163;49.316;6.092;2023-09-08T05:02:15;99515.88;;;20.45;72.82
23953;BME280;12163;49.316;6.092;2023-09-08T05:04:41;99524.16;;;20.76;72.08
23953;BME280;12163;49.316;6.092;2023-09-08T05:07:08;99524.81;;;21.00;70.56
23953;BME280;12163;49.316;6.092;2023-09-08T05:09:36;99515.16;;;21.22;69.67
23953;BME280;12163;49.316;6.092;2023-09-08T05:12:03;99512.38;;;21.37;69.18
23953;BME280;12163;49.316;6.092;2023-09-08T05:14:29;99517.41;;;21.51;68.18
23953;BME280;12163;49.316;6.092;2023-09-08T05:16:56;99516.88;;;21.61;67.59
23953;BME280;12163;49.316;6.092;2023-09-08T05:19:22;99518.63;;;21.69;67.48
23953;BME280;12163;49.316;6.092;2023-09-08T05:21:50;99514.09;;;21.76;66.97
23953;BME280;12163;49.316;6.092;2023-09-08T05:24:16;99515.78;;;21.81;66.46
23953;BME280;12163;49.316;6.092;2023-09-08T05:26:43;99517.00;;;21.83;66.25
23953;BME280;12163;49.316;6.092;2023-09-08T05:29:09;99522.50;;;21.83;66.60
23953;BME280;12163;49.316;6.092;2023-09-08T05:31:36;99530.69;;;21.80;66.11
23953;BME280;12163;49.316;6.092;2023-09-08T05:34:02;99531.41;;;21.77;66.05
23953;BME280;12163;49.316;6.092;2023-09-08T05:36:29;99522.69;;;21.75;66.43
23953;BME280;12163;49.316;6.092;2023-09-08T05:38:58;99535.31;;;21.76;66.25
23953;BME280;12163;49.316;6.092;2023-09-08T05:41:25;99533.78;;;21.78;66.24
23953;BME280;12163;49.316;6.092;2023-09-08T05:43:51;99541.22;;;21.78;66.19
23953;BME280;12163;49.316;6.092;2023-09-08T05:46:17;99538.03;;;21.76;66.42
23953;BME280;12163;49.316;6.092;2023-09-08T05:48:44;99544.66;;;21.75;66.30
23953;BME280;12163;49.316;6.092;2023-09-08T05:51:11;99542.28;;;21.73;66.31
23953;BME280;12163;49.316;6.092;2023-09-08T05:53:38;99543.88;;;21.74;66.53
23953;BME280;12163;49.316;6.092;2023-09-08T05:56:06;99547.50;;;21.78;66.59
23953;BME280;12163;49.316;6.092;2023-09-08T05:58:33;99553.00;;;21.78;66.42
23953;BME280;12163;49.316;6.092;2023-09-08T06:01:01;99551.06;;;21.79;66.44
23953;BME280;12163;49.316;6.092;2023-09-08T06:03:28;99548.75;;;21.81;66.28
23953;BME280;12163;49.316;6.092;2023-09-08T06:05:55;99546.72;;;21.78;66.34
23953;BME280;12163;49.316;6.092;2023-09-08T06:08:22;99546.28;;;21.76;66.27
23953;BME280;12163;49.316;6.092;2023-09-08T06:10:49;99546.16;;;21.88;65.52
23953;BME280;12163;49.316;6.092;2023-09-08T06:13:15;99544.28;;;21.92;66.09
23953;BME280;12163;49.316;6.092;2023-09-08T06:15:42;99545.13;;;21.96;65.89
23953;BME280;12163;49.316;6.092;2023-09-08T06:18:10;99546.81;;;22.00;65.57
23953;BME280;12163;49.316;6.092;2023-09-08T06:20:43;99541.41;;;22.04;65.88
23953;BME280;12163;49.316;6.092;2023-09-08T06:23:10;99543.88;;;22.09;65.51
23953;BME280;12163;49.316;6.092;2023-09-08T06:25:37;99545.97;;;22.15;65.13
23953;BME280;12163;49.316;6.092;2023-09-08T06:28:04;99540.31;;;22.27;65.24
23953;BME280;12163;49.316;6.092;2023-09-08T06:30:30;99541.69;;;22.36;64.82
23953;BME280;12163;49.316;6.092;2023-09-08T06:32:57;99542.31;;;22.45;63.74
23953;BME280;12163;49.316;6.092;2023-09-08T06:35:26;99545.53;;;22.51;63.58
23953;BME280;12163;49.316;6.092;2023-09-08T06:37:52;99545.75;;;22.61;63.99
23953;BME280;12163;49.316;6.092;2023-09-08T06:40:19;99553.34;;;22.68;63.00
23953;BME280;12163;49.316;6.092;2023-09-08T06:42:45;99549.84;;;22.71;62.79
23953;BME280;12163;49.316;6.092;2023-09-08T06:45:12;99547.63;;;22.76;62.67
23953;BME280;12163;49.316;6.092;2023-09-08T06:47:39;99550.47;;;22.83;61.93
23953;BME280;12163;49.316;6.092;2023-09-08T06:50:07;99549.78;;;22.86;61.87
23953;BME280;12163;49.316;6.092;2023-09-08T06:52:33;99556.25;;;22.97;61.83
23953;BME280;12163;49.316;6.092;2023-09-08T06:55:00;99554.03;;;23.06;61.40
23953;BME280;12163;49.316;6.092;2023-09-08T06:57:27;99549.06;;;23.12;61.02
23953;BME280;12163;49.316;6.092;2023-09-08T06:59:53;99554.63;;;23.15;60.64
23953;BME280;12163;49.316;6.092;2023-09-08T07:02:20;99560.56;;;23.17;60.28
23953;BME280;12163;49.316;6.092;2023-09-08T07:04:47;99548.03;;;23.20;60.58
23953;BME280;12163;49.316;6.092;2023-09-08T07:07:14;99554.84;;;23.29;60.35
23953;BME280;12163;49.316;6.092;2023-09-08T07:09:40;99552.69;;;23.42;60.07
23953;BME280;12163;49.316;6.092;2023-09-08T07:12:07;99557.97;;;23.50;59.71
23953;BME280;12163;49.316;6.092;2023-09-08T07:14:34;99553.00;;;23.59;59.22
23953;BME280;12163;49.316;6.092;2023-09-08T07:17:00;99554.63;;;23.64;58.77
23953;BME280;12163;49.316;6.092;2023-09-08T07:19:27;99549.91;;;23.64;58.63
23953;BME280;12163;49.316;6.092;2023-09-08T07:21:54;99555.78;;;23.63;58.26
23953;BME280;12163;49.316;6.092;2023-09-08T07:24:21;99556.59;;;23.63;58.56
23953;BME280;12163;49.316;6.092;2023-09-08T07:26:47;99549.81;;;23.57;57.89
23953;BME280;12163;49.316;6.092;2023-09-08T07:29:14;99551.41;;;23.58;58.56
23953;BME280;12163;49.316;6.092;2023-09-08T07:31:41;99557.84;;;23.69;58.61
23953;BME280;12163;49.316;6.092;2023-09-08T07:34:08;99561.03;;;23.71;58.11
23953;BME280;12163;49.316;6.092;2023-09-08T07:36:36;99560.28;;;23.74;57.80
23953;BME280;12163;49.316;6.092;2023-09-08T07:39:03;99559.28;;;23.82;57.99
23953;BME280;12163;49.316;6.092;2023-09-08T07:41:30;99558.09;;;23.83;58.34
23953;BME280;12163;49.316;6.092;2023-09-08T07:43:56;99555.88;;;23.92;57.99
23953;BME280;12163;49.316;6.092;2023-09-08T07:46:23;99557.25;;;23.79;57.74
23953;BME280;12163;49.316;6.092;2023-09-08T07:48:50;99554.34;;;23.72;58.55
23953;BME280;12163;49.316;6.092;2023-09-08T07:51:17;99564.53;;;23.68;57.97
23953;BME280;12163;49.316;6.092;2023-09-08T07:53:43;99556.91;;;23.58;58.41
23953;BME280;12163;49.316;6.092;2023-09-08T07:56:10;99556.84;;;23.55;58.73
23953;BME280;12163;49.316;6.092;2023-09-08T07:58:37;99559.34;;;23.63;58.60
23953;BME280;12163;49.316;6.092;2023-09-08T08:01:05;99561.78;;;23.68;58.71
23953;BME280;12163;49.316;6.092;2023-09-08T08:03:32;99557.59;;;23.78;58.31
23953;BME280;12163;49.316;6.092;2023-09-08T08:05:58;99555.78;;;23.85;58.25
23953;BME280;12163;49.316;6.092;2023-09-08T08:08:25;99559.84;;;23.95;58.17
23953;BME280;12163;49.316;6.092;2023-09-08T08:10:52;99556.81;;;24.03;57.31
23953;BME280;12163;49.316;6.092;2023-09-08T08:13:18;99556.91;;;24.10;57.69
23953;BME280;12163;49.316;6.092;2023-09-08T08:15:45;99552.34;;;24.21;57.35
23953;BME280;12163;49.316;6.092;2023-09-08T08:18:13;99550.81;;;24.27;56.96
23953;BME280;12163;49.316;6.092;2023-09-08T08:20:41;99556.47;;;24.37;56.59
23953;BME280;12163;49.316;6.092;2023-09-08T08:23:07;99551.84;;;24.45;56.25
23953;BME280;12163;49.316;6.092;2023-09-08T08:25:34;99557.78;;;24.47;56.10
23953;BME280;12163;49.316;6.092;2023-09-08T08:28:01;99557.34;;;24.45;55.90
23953;BME280;12163;49.316;6.092;2023-09-08T08:30:29;99562.97;;;24.52;55.95
23953;BME280;12163;49.316;6.092;2023-09-08T08:32:56;99563.47;;;24.61;55.64
23953;BME280;12163;49.316;6.092;2023-09-08T08:35:22;99558.47;;;24.70;55.25
23953;BME280;12163;49.316;6.092;2023-09-08T08:37:49;99570.44;;;24.84;54.95
23953;BME280;12163;49.316;6.092;2023-09-08T08:40:16;99569.78;;;24.98;54.44
23953;BME280;12163;49.316;6.092;2023-09-08T08:42:43;99569.94;;;25.12;53.94
23953;BME280;12163;49.316;6.092;2023-09-08T08:45:11;99562.56;;;25.23;53.76
23953;BME280;12163;49.316;6.092;2023-09-08T08:47:41;99559.94;;;25.37;53.63
23953;BME280;12163;49.316;6.092;2023-09-08T08:50:09;99559.19;;;25.47;53.14
23953;BME280;12163;49.316;6.092;2023-09-08T08:52:37;99558.06;;;25.51;52.91
23953;BME280;12163;49.316;6.092;2023-09-08T08:55:04;99559.28;;;25.54;53.29
23953;BME280;12163;49.316;6.092;2023-09-08T08:57:32;99556.91;;;25.56;52.77
23953;BME280;12163;49.316;6.092;2023-09-08T09:00:00;99553.69;;;25.47;53.02
23953;BME280;12163;49.316;6.092;2023-09-08T09:02:28;99559.16;;;25.40;53.25
23953;BME280;12163;49.316;6.092;2023-09-08T09:04:56;99557.53;;;25.32;53.48
23953;BME280;12163;49.316;6.092;2023-09-08T09:07:24;99549.25;;;25.35;53.69
23953;BME280;12163;49.316;6.092;2023-09-08T09:09:51;99552.09;;;25.46;53.09
23953;BME280;12163;49.316;6.092;2023-09-08T09:12:18;99549.41;;;25.53;53.14
23953;BME280;12163;49.316;6.092;2023-09-08T09:14:46;99545.50;;;25.61;53.42
23953;BME280;12163;49.316;6.092;2023-09-08T09:17:14;99544.00;;;25.74;53.25
23953;BME280;12163;49.316;6.092;2023-09-08T09:19:41;99543.72;;;25.86;53.08
23953;BME280;12163;49.316;6.092;2023-09-08T09:22:08;99542.22;;;25.98;52.94
23953;BME280;12163;49.316;6.092;2023-09-08T09:24:40;99550.16;;;26.10;52.45
23953;BME280;12163;49.316;6.092;2023-09-08T09:27:10;99546.25;;;26.15;52.17
23953;BME280;12163;49.316;6.092;2023-09-08T09:29:47;99538.41;;;26.27;52.37
23953;BME280;12163;49.316;6.092;2023-09-08T09:32:15;99539.59;;;26.33;51.65
23953;BME280;12163;49.316;6.092;2023-09-08T09:34:50;99549.50;;;26.31;51.82
23953;BME280;12163;49.316;6.092;2023-09-08T09:37:18;99540.03;;;26.39;51.98
23953;BME280;12163;49.316;6.092;2023-09-08T09:39:49;99536.94;;;26.54;51.86
23953;BME280;12163;49.316;6.092;2023-09-08T09:42:16;99540.09;;;26.56;51.69
23953;BME280;12163;49.316;6.092;2023-09-08T09:44:43;99536.59;;;26.66;51.56
23953;BME280;12163;49.316;6.092;2023-09-08T09:47:10;99540.16;;;26.70;51.45
23953;BME280;12163;49.316;6.092;2023-09-08T09:49:45;99540.97;;;26.81;50.98
23953;BME280;12163;49.316;6.092;2023-09-08T09:52:14;99532.28;;;26.93;50.84
23953;BME280;12163;49.316;6.092;2023-09-08T09:54:42;99533.91;;;27.08;50.55
23953;BME280;12163;49.316;6.092;2023-09-08T09:57:13;99533.91;;;27.12;50.38
23953;BME280;12163;49.316;6.092;2023-09-08T09:59:41;99526.78;;;27.18;50.48
23953;BME280;12163;49.316;6.092;2023-09-08T10:02:17;99525.59;;;27.19;50.44
23953;BME280;12163;49.316;6.092;2023-09-08T10:04:50;99522.44;;;27.27;49.99
23953;BME280;12163;49.316;6.092;2023-09-08T10:07:18;99524.44;;;27.37;50.08
23953;BME280;12163;49.316;6.092;2023-09-08T10:09:46;99523.63;;;27.44;49.77
23953;BME280;12163;49.316;6.092;2023-09-08T10:12:14;99520.06;;;27.57;49.64
23953;BME280;12163;49.316;6.092;2023-09-08T10:14:42;99513.31;;;27.69;48.87
23953;BME280;12163;49.316;6.092;2023-09-08T10:17:14;99522.78;;;27.81;48.46
23953;BME280;12163;49.316;6.092;2023-09-08T10:19:45;99526.34;;;27.89;48.20
23953;BME280;12163;49.316;6.092;2023-09-08T10:22:19;99521.97;;;28.02;48.32
23953;BME280;12163;49.316;6.092;2023-09-08T10:24:49;99515.53;;;28.22;48.06
23953;BME280;12163;49.316;6.092;2023-09-08T10:27:16;99518.50;;;28.70;46.26
23953;BME280;12163;49.316;6.092;2023-09-08T10:29:47;99524.81;;;28.74;46.12
23953;BME280;12163;49.316;6.092;2023-09-08T10:32:15;99511.25;;;28.83;46.26
23953;BME280;12163;49.316;6.092;2023-09-08T10:34:44;99510.00;;;28.94;46.21
23953;BME280;12163;49.316;6.092;2023-09-08T10:37:25;99517.59;;;28.90;45.95
23953;BME280;12163;49.316;6.092;2023-09-08T10:39:54;99504.75;;;29.07;45.47
23953;BME280;12163;49.316;6.092;2023-09-08T10:42:23;99511.34;;;29.27;45.67
23953;BME280;12163;49.316;6.092;2023-09-08T10:44:56;99513.75;;;29.25;45.91
23953;BME280;12163;49.316;6.092;2023-09-08T10:47:24;99510.53;;;29.30;45.41
23953;BME280;12163;49.316;6.092;2023-09-08T10:49:52;99508.84;;;29.39;45.12
23953;BME280;12163;49.316;6.092;2023-09-08T10:52:23;99500.88;;;29.45;45.35
23953;BME280;12163;49.316;6.092;2023-09-08T10:54:52;99498.75;;;29.63;44.50
23953;BME280;12163;49.316;6.092;2023-09-08T10:57:24;99486.63;;;29.79;44.75
23953;BME280;12163;49.316;6.092;2023-09-08T10:59:54;99490.44;;;29.92;43.86
23953;BME280;12163;49.316;6.092;2023-09-08T11:02:38;99488.81;;;29.98;43.99
23953;BME280;12163;49.316;6.092;2023-09-08T11:05:07;99486.06;;;29.95;43.73
23953;BME280;12163;49.316;6.092;2023-09-08T11:07:39;99482.03;;;29.99;43.79
23953;BME280;12163;49.316;6.092;2023-09-08T11:10:07;99486.72;;;30.06;43.96
23953;BME280;12163;49.316;6.092;2023-09-08T11:12:34;99485.34;;;30.24;43.22
23953;BME280;12163;49.316;6.092;2023-09-08T11:15:03;99480.25;;;30.46;43.14
23953;BME280;12163;49.316;6.092;2023-09-08T11:17:37;99477.56;;;30.69;42.55
23953;BME280;12163;49.316;6.092;2023-09-08T11:20:09;99475.66;;;30.89;42.07
23953;BME280;12163;49.316;6.092;2023-09-08T11:22:38;99472.59;;;31.06;41.63
23953;BME280;12163;49.316;6.092;2023-09-08T11:25:09;99479.59;;;31.41;40.30
23953;BME280;12163;49.316;6.092;2023-09-08T11:27:38;99476.25;;;31.49;39.74
23953;BME280;12163;49.316;6.092;2023-09-08T11:30:07;99475.78;;;31.54;40.22
23953;BME280;12163;49.316;6.092;2023-09-08T11:32:35;99474.81;;;31.64;39.11
23953;BME280;12163;49.316;6.092;2023-09-08T11:35:06;99472.72;;;31.68;38.50
23953;BME280;12163;49.316;6.092;2023-09-08T11:37:36;99467.44;;;31.73;39.90
23953;BME280;12163;49.316;6.092;2023-09-08T11:40:04;99467.19;;;31.87;39.14
23953;BME280;12163;49.316;6.092;2023-09-08T11:42:40;99473.13;;;32.09;38.95
23953;BME280;12163;49.316;6.092;2023-09-08T11:45:14;99466.06;;;32.24;37.64
23953;BME280;12163;49.316;6.092;2023-09-08T11:47:44;99466.75;;;32.28;36.44
23953;BME280;12163;49.316;6.092;2023-09-08T11:50:12;99460.72;;;32.10;36.58
23953;BME280;12163;49.316;6.092;2023-09-08T11:52:50;99464.03;;;32.05;37.72
23953;BME280;12163;49.316;6.092;2023-09-08T11:55:18;99473.56;;;32.27;37.69
23953;BME280;12163;49.316;6.092;2023-09-08T11:57:55;99464.44;;;32.42;38.15
23953;BME280;12163;49.316;6.092;2023-09-08T12:00:24;99475.78;;;32.35;36.32
23953;BME280;12163;49.316;6.092;2023-09-08T12:02:52;99469.56;;;32.28;36.28
23953;BME280;12163;49.316;6.092;2023-09-08T12:05:26;99476.34;;;32.27;34.37
23953;BME280;12163;49.316;6.092;2023-09-08T12:07:57;99469.34;;;32.19;35.28
23953;BME280;12163;49.316;6.092;2023-09-08T12:10:25;99464.75;;;32.09;35.83
23953;BME280;12163;49.316;6.092;2023-09-08T12:12:53;99466.66;;;32.12;35.65
23953;BME280;12163;49.316;6.092;2023-09-08T12:15:40;99461.25;;;32.24;35.58
23953;BME280;12163;49.316;6.092;2023-09-08T12:18:11;99456.53;;;32.21;35.72
23953;BME280;12163;49.316;6.092;2023-09-08T12:20:39;99460.53;;;32.20;35.06
23953;BME280;12163;49.316;6.092;2023-09-08T12:23:18;99458.22;;;32.15;35.13
23953;BME280;12163;49.316;6.092;2023-09-08T12:25:46;99443.91;;;32.13;35.38
23953;BME280;12163;49.316;6.092;2023-09-08T12:28:16;99443.09;;;32.13;35.11
23953;BME280;12163;49.316;6.092;2023-09-08T12:30:43;99452.84;;;32.24;35.04
23953;BME280;12163;49.316;6.092;2023-09-08T12:33:10;99447.47;;;32.14;35.41
23953;BME280;12163;49.316;6.092;2023-09-08T12:35:37;99455.84;;;32.14;35.48
23953;BME280;12163;49.316;6.092;2023-09-08T12:38:05;99449.50;;;32.13;33.57
23953;BME280;12163;49.316;6.092;2023-09-08T12:40:36;99443.09;;;32.13;33.27
23953;BME280;12163;49.316;6.092;2023-09-08T12:43:04;99447.81;;;32.16;32.74
23953;BME280;12163;49.316;6.092;2023-09-08T12:45:50;99443.34;;;32.22;32.76
23953;BME280;12163;49.316;6.092;2023-09-08T12:48:17;99445.47;;;32.34;33.47
23953;BME280;12163;49.316;6.092;2023-09-08T12:50:44;99444.59;;;32.37;32.30
23953;BME280;12163;49.316;6.092;2023-09-08T12:53:10;99442.69;;;32.34;32.52
23953;BME280;12163;49.316;6.092;2023-09-08T12:55:37;99445.69;;;32.43;32.25
23953;BME280;12163;49.316;6.092;2023-09-08T12:58:04;99443.88;;;32.52;31.97
23953;BME280;12163;49.316;6.092;2023-09-08T13:00:30;99435.38;;;32.56;31.43
23953;BME280;12163;49.316;6.092;2023-09-08T13:02:57;99439.41;;;32.55;31.75
23953;BME280;12163;49.316;6.092;2023-09-08T13:05:24;99432.69;;;32.52;32.19
23953;BME280;12163;49.316;6.092;2023-09-08T13:07:50;99427.94;;;32.49;32.04
23953;BME280;12163;49.316;6.092;2023-09-08T13:10:17;99417.56;;;32.50;31.74